Time;durP1;ratioP1;P1;durP2;ratioP2;P2;SDS_P1;SDS_P2;PMS_P1;PMS_P2;Temp;Humidity;BMP_temperature;BMP_pressure;BME280_temperature;BME280_humidity;BME280_pressure;Samples;Min_cycle;Max_cycle;Signal;HPM_P1;HPM_P2
2023/04/16 00:01:25;;;;;;;20.75;9.18;;;;;;;6.23;100.00;102052.22;5053273;28;20033;-57
2023/04/16 00:03:50;;;;;;;24.95;9.35;;;;;;;6.23;100.00;102049.66;5052582;28;20467;-58
2023/04/16 00:06:15;;;;;;;22.90;9.57;;;;;;;6.25;100.00;102048.09;5053105;28;20033;-57
2023/04/16 00:08:42;;;;;;;18.67;9.90;;;;;;;6.24;100.00;102053.13;5052943;28;20396;-57
2023/04/16 00:11:07;;;;;;;25.20;10.30;;;;;;;6.23;100.00;102052.22;5052569;28;20444;-57
2023/04/16 00:13:32;;;;;;;19.77;10.30;;;;;;;6.26;100.00;102056.66;5052805;28;20056;-57
2023/04/16 00:15:58;;;;;;;19.67;10.23;;;;;;;6.26;100.00;102051.53;5053311;28;20048;-57
2023/04/16 00:18:23;;;;;;;25.00;9.90;;;;;;;6.28;100.00;102059.34;5052086;28;20025;-57
2023/04/16 00:20:49;;;;;;;25.38;10.30;;;;;;;6.26;100.00;102055.00;5053205;28;20052;-57
2023/04/16 00:23:15;;;;;;;24.35;10.70;;;;;;;6.29;100.00;102050.84;5053012;28;20029;-57
2023/04/16 00:25:41;;;;;;;24.08;10.57;;;;;;;6.29;100.00;102048.28;5052075;28;20025;-57
2023/04/16 00:28:07;;;;;;;27.92;10.88;;;;;;;6.31;100.00;102049.28;5052782;28;20028;-57
2023/04/16 00:30:33;;;;;;;31.65;11.95;;;;;;;6.31;100.00;102054.41;5052832;28;20074;-57
2023/04/16 00:32:58;;;;;;;29.40;10.63;;;;;;;6.28;100.00;102055.09;5051681;28;20433;-57
2023/04/16 00:35:24;;;;;;;29.98;12.00;;;;;;;6.30;100.00;102052.63;5052438;28;20498;-57
2023/04/16 00:37:49;;;;;;;30.95;12.18;;;;;;;6.31;100.00;102050.16;5052504;28;20559;-58
2023/04/16 00:40:15;;;;;;;28.25;12.18;;;;;;;6.31;100.00;102054.41;5052058;28;20456;-57
2023/04/16 00:42:40;;;;;;;30.48;12.23;;;;;;;6.31;100.00;102054.41;5052414;28;20040;-57
2023/04/16 00:45:06;;;;;;;32.90;13.13;;;;;;;6.32;100.00;102053.63;5052883;28;20025;-58
2023/04/16 00:47:32;;;;;;;31.98;13.93;;;;;;;6.30;100.00;102050.97;5051621;28;20033;-57
2023/04/16 00:49:58;;;;;;;30.67;14.10;;;;;;;6.31;100.00;102051.84;5052610;28;20419;-58
2023/04/16 00:52:24;;;;;;;31.63;14.63;;;;;;;6.30;100.00;102056.09;5052030;28;20465;-57
2023/04/16 00:54:50;;;;;;;31.02;15.32;;;;;;;6.31;100.00;102049.28;5051011;28;20036;-57
2023/04/16 00:57:19;;;;;;;31.00;15.20;;;;;;;6.33;100.00;102046.06;5052237;28;20021;-57
2023/04/16 00:59:45;;;;;;;37.53;16.40;;;;;;;6.33;100.00;102050.31;5051753;28;20025;-57
2023/04/16 01:02:11;;;;;;;32.60;16.25;;;;;;;6.33;100.00;102048.63;5052716;28;20025;-58
2023/04/16 01:04:36;;;;;;;35.95;16.80;;;;;;;6.33;100.00;102042.63;5052257;28;20041;-58
2023/04/16 01:07:02;;;;;;;39.10;18.52;;;;;;;6.34;100.00;102044.38;5051566;28;20037;-56
2023/04/16 01:09:27;;;;;;;36.03;17.85;;;;;;;6.36;100.00;102045.38;5052073;28;20017;-57
2023/04/16 01:11:52;;;;;;;34.60;18.73;;;;;;;6.35;100.00;102052.19;5052725;28;20027;-57
2023/04/16 01:14:17;;;;;;;39.67;17.95;;;;;;;6.36;100.00;102042.81;5051550;28;20029;-58
2023/04/16 01:16:43;;;;;;;34.65;18.08;;;;;;;6.39;100.00;102043.00;5052441;28;20021;-57
2023/04/16 01:19:08;;;;;;;36.22;18.95;;;;;;;6.38;100.00;102042.13;5052542;28;20083;-57
2023/04/16 01:21:33;;;;;;;35.95;17.85;;;;;;;6.38;100.00;102038.69;5051222;28;20051;-58
2023/04/16 01:24:03;;;;;;;35.95;18.58;;;;;;;6.39;100.00;102038.78;5052192;28;20410;-57
2023/04/16 01:26:28;;;;;;;33.50;18.40;;;;;;;6.39;100.00;102035.31;5051911;28;20029;-58
2023/04/16 01:28:54;;;;;;;27.70;18.35;;;;;;;6.43;100.00;102042.44;5051791;28;20052;-57
2023/04/16 01:31:19;;;;;;;33.78;18.67;;;;;;;6.42;100.00;102043.22;5052181;28;20024;-57
2023/04/16 01:33:45;;;;;;;37.92;18.17;;;;;;;6.42;100.00;102043.22;5052464;28;20021;-57
2023/04/16 01:36:10;;;;;;;38.50;18.48;;;;;;;6.41;100.00;102042.31;5051564;28;20491;-57
2023/04/16 01:38:35;;;;;;;30.65;18.02;;;;;;;6.44;100.00;102046.75;5051968;28;20044;-57
2023/04/16 01:41:00;;;;;;;34.30;17.77;;;;;;;6.44;100.00;102046.75;5052215;28;20052;-57
2023/04/16 01:43:26;;;;;;;32.75;17.33;;;;;;;6.46;100.00;102049.44;5051106;28;20066;-58
2023/04/16 01:45:58;;;;;;;30.77;17.40;;;;;;;6.44;100.00;102046.75;5052165;28;20064;-57
2023/04/16 01:48:23;;;;;;;40.55;17.88;;;;;;;6.47;100.00;102038.38;5051864;28;20029;-57
2023/04/16 01:50:49;;;;;;;29.70;15.75;;;;;;;6.48;100.00;102048.75;5051430;28;20029;-57
2023/04/16 01:53:14;;;;;;;36.05;18.00;;;;;;;6.49;100.00;102045.38;5053721;28;20052;-57
2023/04/16 01:55:40;;;;;;;38.67;16.95;;;;;;;6.51;100.00;102046.38;5055642;28;20025;-57
2023/04/16 01:58:06;;;;;;;36.08;17.45;;;;;;;6.52;100.00;102049.81;5054765;28;20032;-58
2023/04/16 02:00:32;;;;;;;31.20;16.77;;;;;;;6.53;100.00;102049.03;5054871;28;20024;-57
2023/04/16 02:02:57;;;;;;;38.33;16.73;;;;;;;6.54;100.00;102050.81;5054895;28;20487;-57
2023/04/16 02:05:23;;;;;;;33.53;16.38;;;;;;;6.54;100.00;102051.69;5055155;28;20052;-57
2023/04/16 02:07:48;;;;;;;30.63;16.83;;;;;;;6.57;100.00;102049.34;5054926;28;20017;-57
2023/04/16 02:10:13;;;;;;;31.40;14.77;;;;;;;6.56;100.00;102050.13;5054300;28;20075;-57
2023/04/16 02:12:39;;;;;;;28.80;15.23;;;;;;;6.57;100.00;102044.22;5055125;28;20048;-57
2023/04/16 02:15:04;;;;;;;25.45;14.75;;;;;;;6.60;100.00;102048.66;5055644;28;20028;-57
2023/04/16 02:17:30;;;;;;;27.50;14.60;;;;;;;6.59;100.00;102040.06;5054155;28;20376;-58
2023/04/16 02:19:55;;;;;;;27.25;14.88;;;;;;;6.62;100.00;102051.31;5055525;28;20025;-57
2023/04/16 02:22:20;;;;;;;29.15;13.88;;;;;;;6.63;100.00;102042.84;5054706;28;20021;-57
2023/04/16 02:24:45;;;;;;;29.38;14.85;;;;;;;6.64;100.00;102044.63;5054444;28;20021;-58
2023/04/16 02:27:11;;;;;;;26.30;13.73;;;;;;;6.64;100.00;102044.63;5055205;28;20029;-57
2023/04/16 02:29:36;;;;;;;29.60;14.10;;;;;;;6.62;100.00;102041.06;5054738;28;20021;-57
2023/04/16 02:32:02;;;;;;;25.67;12.80;;;;;;;6.62;100.00;102043.63;5054334;28;20033;-57
2023/04/16 02:34:27;;;;;;;28.58;13.02;;;;;;;6.60;100.00;102048.66;5054804;28;20069;-57
2023/04/16 02:36:53;;;;;;;26.50;13.48;;;;;;;6.61;100.00;102044.41;5054835;28;20074;-57
2023/04/16 02:39:19;;;;;;;26.38;12.95;;;;;;;6.58;100.00;102048.56;5053774;28;20054;-57
2023/04/16 02:41:44;;;;;;;31.25;13.18;;;;;;;6.58;100.00;102046.00;5054834;28;20399;-57
2023/04/16 02:44:09;;;;;;;22.67;13.00;;;;;;;6.59;100.00;102045.19;5055085;28;20027;-57
2023/04/16 02:46:35;;;;;;;28.63;14.18;;;;;;;6.59;100.00;102046.88;5053955;28;20112;-57
2023/04/16 02:49:00;;;;;;;29.55;13.88;;;;;;;6.59;100.00;102050.31;5054793;28;20491;-57
2023/04/16 02:51:26;;;;;;;30.17;13.40;;;;;;;6.59;100.00;102058.00;5054380;28;20032;-57
2023/04/16 02:53:51;;;;;;;25.75;14.13;;;;;;;6.58;100.00;102056.25;5053583;28;20083;-57
2023/04/16 02:56:17;;;;;;;28.77;14.38;;;;;;;6.58;100.00;102058.81;5054503;28;20025;-57
2023/04/16 02:58:42;;;;;;;31.88;15.57;;;;;;;6.58;100.00;102055.34;5054744;28;20028;-57
2023/04/16 03:01:07;;;;;;;29.42;14.43;;;;;;;6.58;100.00;102066.50;5053771;28;20036;-57
2023/04/16 03:03:32;;;;;;;38.88;15.90;;;;;;;6.58;100.00;102061.38;5053761;28;20040;-57
2023/04/16 03:05:58;;;;;;;34.83;16.25;;;;;;;6.61;100.00;102059.78;5053776;28;20028;-58
2023/04/16 03:08:23;;;;;;;34.75;16.75;;;;;;;6.59;100.00;102063.13;5052859;28;20120;-57
2023/04/16 03:10:48;;;;;;;41.00;17.65;;;;;;;6.58;100.00;102055.34;5054694;28;20025;-57
2023/04/16 03:13:14;;;;;;;35.45;18.08;;;;;;;6.58;100.00;102061.38;5053787;28;20040;-57
2023/04/16 03:15:39;;;;;;;37.65;19.02;;;;;;;6.56;100.00;102062.94;5054110;28;20027;-57
2023/04/16 03:18:05;;;;;;;34.45;18.83;;;;;;;6.56;100.00;102065.50;5054336;28;20036;-57
2023/04/16 03:20:30;;;;;;;40.45;21.35;;;;;;;6.56;100.00;102067.19;5053256;28;20053;-57
2023/04/16 03:22:56;;;;;;;37.38;20.13;;;;;;;6.54;100.00;102072.19;5053386;28;20035;-57
2023/04/16 03:25:21;;;;;;;38.13;20.60;;;;;;;6.57;100.00;102074.97;5054026;28;20025;-57
2023/04/16 03:27:46;;;;;;;41.17;22.42;;;;;;;6.56;100.00;102068.06;5053342;28;20025;-57
2023/04/16 03:30:12;;;;;;;49.35;23.05;;;;;;;6.55;100.00;102075.66;5054195;28;20444;-57
2023/04/16 03:32:38;;;;;;;42.53;23.48;;;;;;;6.56;100.00;102073.19;5053582;28;20594;-57
2023/04/16 03:35:05;;;;;;;47.05;23.80;;;;;;;6.57;100.00;102084.31;5053331;28;20028;-57
2023/04/16 03:37:31;;;;;;;48.40;24.77;;;;;;;6.54;100.00;102079.84;5053212;28;20108;-57
2023/04/16 03:39:56;;;;;;;50.72;25.88;;;;;;;6.54;100.00;102078.97;5054070;28;20029;-58
2023/04/16 03:42:21;;;;;;;45.35;25.08;;;;;;;6.54;100.00;102084.97;5052968;28;20122;-58
2023/04/16 03:44:46;;;;;;;42.60;24.88;;;;;;;6.54;100.00;102077.31;5053922;28;20487;-57
2023/04/16 03:47:12;;;;;;;47.72;25.98;;;;;;;6.55;100.00;102071.41;5053780;28;20021;-57
2023/04/16 03:49:37;;;;;;;46.13;24.63;;;;;;;6.56;100.00;102072.31;5052680;28;20413;-57
2023/04/16 03:52:02;;;;;;;46.33;25.13;;;;;;;6.55;100.00;102060.28;5053414;28;20036;-58
2023/04/16 03:54:28;;;;;;;49.20;26.00;;;;;;;6.57;100.00;102068.94;5053033;28;20448;-57
2023/04/16 03:56:53;;;;;;;45.50;25.20;;;;;;;6.55;100.00;102066.28;5052941;28;20028;-57
2023/04/16 03:59:18;;;;;;;43.78;26.83;;;;;;;6.58;100.00;102075.84;5053080;28;20099;-58
2023/04/16 04:01:43;;;;;;;44.13;27.35;;;;;;;6.57;100.00;102074.97;5053465;28;20380;-57
2023/04/16 04:04:09;;;;;;;43.90;27.60;;;;;;;6.56;100.00;102078.31;5052547;28;20447;-57
2023/04/16 04:06:34;;;;;;;45.15;26.88;;;;;;;6.57;100.00;102068.94;5052818;28;20032;-57
2023/04/16 04:09:00;;;;;;;45.58;28.40;;;;;;;6.58;100.00;102076.75;5053146;28;20017;-57
2023/04/16 04:11:25;;;;;;;47.67;27.65;;;;;;;6.58;100.00;102074.19;5052255;28;20025;-57
2023/04/16 04:13:50;;;;;;;45.65;27.73;;;;;;;6.59;100.00;102072.50;5053273;28;20468;-57
2023/04/16 04:16:16;;;;;;;45.63;26.67;;;;;;;6.59;100.00;102078.50;5052745;28;20418;-57
2023/04/16 04:18:41;;;;;;;42.05;26.85;;;;;;;6.62;100.00;102079.50;5052488;28;20025;-57
2023/04/16 04:21:07;;;;;;;41.75;26.85;;;;;;;6.62;100.00;102075.25;5052954;28;20032;-58
2023/04/16 04:23:33;;;;;;;42.13;26.80;;;;;;;6.61;100.00;102078.63;5051215;28;20033;-57
2023/04/16 04:26:02;;;;;;;46.45;27.17;;;;;;;6.61;100.00;102075.16;5053249;28;20100;-57
2023/04/16 04:28:27;;;;;;;44.30;25.90;;;;;;;6.59;100.00;102086.19;5052743;28;20068;-57
2023/04/16 04:30:53;;;;;;;48.72;26.55;;;;;;;6.64;100.00;102080.50;5051732;28;20059;-57
2023/04/16 04:33:18;;;;;;;43.95;25.48;;;;;;;6.64;100.00;102085.63;5052825;28;20554;-57
2023/04/16 04:35:43;;;;;;;42.72;25.85;;;;;;;6.65;100.00;102092.50;5052883;28;20108;-57
2023/04/16 04:38:08;;;;;;;44.08;25.48;;;;;;;6.65;100.00;102085.72;5052139;28;20036;-57
2023/04/16 04:40:34;;;;;;;44.65;25.10;;;;;;;6.65;100.00;102097.59;5052685;28;20031;-57
2023/04/16 04:42:59;;;;;;;43.03;24.98;;;;;;;6.65;100.00;102097.59;5052862;28;20040;-57
2023/04/16 04:45:25;;;;;;;42.92;25.48;;;;;;;6.65;100.00;102092.50;5051644;28;20025;-57
2023/04/16 04:47:51;;;;;;;45.33;24.75;;;;;;;6.65;100.00;102097.59;5052682;28;20060;-58
2023/04/16 04:50:17;;;;;;;43.33;25.20;;;;;;;6.65;100.00;102102.72;5052347;28;20058;-57
2023/04/16 04:52:42;;;;;;;40.83;25.20;;;;;;;6.64;100.00;102098.44;5051510;28;20059;-57
2023/04/16 04:55:07;;;;;;;42.60;24.75;;;;;;;6.65;100.00;102097.59;5052683;28;20495;-58
2023/04/16 04:57:33;;;;;;;43.25;26.23;;;;;;;6.64;100.00;102101.84;5052507;28;20098;-57
2023/04/16 04:59:58;;;;;;;45.28;24.40;;;;;;;6.65;100.00;102106.19;5051620;28;20032;-57
2023/04/16 05:02:23;;;;;;;42.80;26.23;;;;;;;6.64;100.00;102099.28;5052400;28;20028;-57
2023/04/16 05:04:48;;;;;;;41.42;25.70;;;;;;;6.65;100.00;102107.84;5052399;28;20076;-57
2023/04/16 05:07:14;;;;;;;45.30;26.23;;;;;;;6.67;100.00;102106.31;5051238;28;20074;-57
2023/04/16 05:09:39;;;;;;;44.00;26.55;;;;;;;6.68;100.00;102108.09;5052382;28;20029;-57
2023/04/16 05:12:05;;;;;;;45.88;26.10;;;;;;;6.67;100.00;102108.84;5052544;28;20044;-57
2023/04/16 05:14:30;;;;;;;48.85;26.10;;;;;;;6.64;100.00;102101.84;5051651;28;20040;-57
2023/04/16 05:16:56;;;;;;;56.45;26.10;;;;;;;6.65;100.00;102108.75;5052722;28;20083;-57
2023/04/16 05:19:21;;;;;;;48.13;26.00;;;;;;;6.66;100.00;102109.63;5052102;28;20025;-57
2023/04/16 05:21:46;;;;;;;48.58;26.38;;;;;;;6.65;100.00;102110.41;5051329;28;20027;-56
2023/04/16 05:24:11;;;;;;;44.53;25.42;;;;;;;6.64;100.00;102113.78;5052173;28;20037;-57
2023/04/16 05:26:37;;;;;;;43.58;25.52;;;;;;;6.66;100.00;102115.66;5051531;28;20493;-56
2023/04/16 05:29:02;;;;;;;53.80;28.35;;;;;;;6.65;100.00;102112.97;5054353;28;20021;-56
2023/04/16 05:31:27;;;;;;;58.03;27.98;;;;;;;6.66;100.00;102125.00;5055930;28;20029;-57
2023/04/16 05:33:52;;;;;;;48.90;26.95;;;;;;;6.66;100.00;102125.00;5055402;28;20025;-57
2023/04/16 05:36:18;;;;;;;46.03;26.67;;;;;;;6.65;100.00;102124.13;5055858;28;20079;-57
2023/04/16 05:38:43;;;;;;;51.72;27.70;;;;;;;6.67;100.00;102124.22;5055562;28;20031;-57
2023/04/16 05:41:08;;;;;;;54.35;29.50;;;;;;;6.66;100.00;102125.00;5055526;28;20033;-57
2023/04/16 05:43:33;;;;;;;52.05;29.30;;;;;;;6.66;100.00;102125.00;5055912;28;20028;-56
2023/04/16 05:45:59;;;;;;;55.42;29.05;;;;;;;6.68;100.00;102132.00;5056041;28;20029;-57
2023/04/16 05:48:24;;;;;;;52.60;29.23;;;;;;;6.68;100.00;102134.56;5054844;28;20029;-57
2023/04/16 05:50:49;;;;;;;54.47;29.58;;;;;;;6.68;100.00;102133.69;5055757;28;20392;-56
2023/04/16 05:53:15;;;;;;;52.95;29.77;;;;;;;6.70;100.00;102137.22;5056004;28;20029;-57
2023/04/16 05:55:40;;;;;;;61.20;31.42;;;;;;;6.70;100.00;102147.47;5055186;28;20025;-56
2023/04/16 05:58:05;;;;;;;46.58;29.58;;;;;;;6.71;100.00;102147.59;5055511;28;20025;-57
2023/04/16 06:00:32;;;;;;;59.10;30.80;;;;;;;6.71;100.00;102146.69;5055404;28;20024;-56
2023/04/16 06:02:57;;;;;;;58.33;31.17;;;;;;;6.72;100.00;102149.34;5054969;28;20048;-57
2023/04/16 06:05:25;;;;;;;60.58;31.83;;;;;;;6.75;100.00;102153.78;5055071;28;20404;-57
2023/04/16 06:07:51;;;;;;;55.67;31.83;;;;;;;6.75;100.00;102148.66;5055327;28;20040;-57
2023/04/16 06:10:16;;;;;;;66.75;32.05;;;;;;;6.74;100.00;102150.34;5054649;28;20385;-57
2023/04/16 06:12:41;;;;;;;63.08;31.92;;;;;;;6.75;100.00;102151.22;5055761;28;20353;-57
2023/04/16 06:15:07;;;;;;;62.90;31.40;;;;;;;6.76;100.00;102153.00;5055496;28;20064;-57
2023/04/16 06:17:32;;;;;;;64.00;32.30;;;;;;;6.78;100.00;102151.47;5054251;28;20036;-56
2023/04/16 06:19:58;;;;;;;54.33;31.90;;;;;;;6.79;100.00;102152.34;5055368;28;20036;-56
2023/04/16 06:22:23;;;;;;;60.58;33.53;;;;;;;6.82;100.00;102153.44;5054735;28;20017;-56
2023/04/16 06:24:49;;;;;;;58.63;32.13;;;;;;;6.83;100.00;102154.31;5054668;28;20523;-57
2023/04/16 06:27:14;;;;;;;58.58;32.33;;;;;;;6.83;100.00;102154.31;5055156;28;20033;-57
2023/04/16 06:29:40;;;;;;;60.58;31.95;;;;;;;6.86;100.00;102163.09;5054773;28;20105;-56
2023/04/16 06:32:06;;;;;;;60.35;32.28;;;;;;;6.87;100.00;102162.31;5054335;28;20476;-57
2023/04/16 06:34:31;;;;;;;61.13;31.50;;;;;;;6.87;100.00;102166.56;5054801;28;20124;-57
2023/04/16 06:36:56;;;;;;;62.67;32.15;;;;;;;6.86;100.00;102169.91;5055134;28;20112;-57
2023/04/16 06:39:22;;;;;;;69.68;33.72;;;;;;;6.87;100.00;102172.56;5053959;28;20358;-57
2023/04/16 06:41:47;;;;;;;72.82;33.25;;;;;;;6.88;100.00;102174.34;5055090;28;20068;-57
2023/04/16 06:44:13;;;;;;;70.38;33.78;;;;;;;6.88;100.00;102173.44;5054224;28;20044;-56
2023/04/16 06:46:39;;;;;;;64.70;31.45;;;;;;;6.90;100.00;102177.88;5054435;28;20107;-57
2023/04/16 06:49:04;;;;;;;63.42;32.33;;;;;;;6.92;100.00;102176.31;5054646;28;20028;-57
2023/04/16 06:51:30;;;;;;;69.38;33.50;;;;;;;6.96;100.00;102187.66;5053836;28;20025;-56
2023/04/16 06:53:55;;;;;;;60.08;33.05;;;;;;;6.97;100.00;102178.28;5054822;28;20530;-57
2023/04/16 06:56:20;;;;;;;65.25;33.17;;;;;;;6.96;100.00;102187.66;5054345;28;20033;-57
2023/04/16 06:58:46;;;;;;;64.00;33.05;;;;;;;6.99;100.00;102184.41;5053888;28;20025;-57
2023/04/16 07:01:11;;;;;;;65.97;33.78;;;;;;;6.98;100.00;102195.44;5054545;28;20029;-56
2023/04/16 07:03:36;;;;;;;67.18;33.75;;;;;;;6.98;100.00;102195.44;5053968;28;20025;-57
2023/04/16 07:06:02;;;;;;;67.93;33.72;;;;;;;6.97;100.00;102193.66;5053746;28;20025;-57
2023/04/16 07:08:27;;;;;;;79.85;34.65;;;;;;;6.96;100.00;102186.75;5053575;28;20358;-57
2023/04/16 07:10:53;;;;;;;71.85;33.72;;;;;;;6.98;100.00;102198.00;5054454;28;20132;-56
2023/04/16 07:13:18;;;;;;;69.13;34.55;;;;;;;6.99;100.00;102203.22;5053367;28;20119;-57
2023/04/16 07:15:44;;;;;;;77.82;36.88;;;;;;;7.01;100.00;102200.75;5054271;28;20488;-57
2023/04/16 07:18:09;;;;;;;75.13;35.70;;;;;;;7.02;100.00;102207.66;5054215;28;20465;-57
2023/04/16 07:20:35;;;;;;;74.88;35.05;;;;;;;7.06;100.00;102207.06;5052965;28;20067;-57
2023/04/16 07:23:00;;;;;;;64.97;35.03;;;;;;;7.05;100.00;102206.19;5054231;28;20028;-57
2023/04/16 07:25:26;;;;;;;72.70;35.05;;;;;;;7.08;100.00;102205.53;5053899;28;20043;-57
2023/04/16 07:27:51;;;;;;;81.25;36.28;;;;;;;7.08;100.00;102213.22;5053307;28;20029;-56
2023/04/16 07:30:16;;;;;;;70.88;36.58;;;;;;;7.09;100.00;102213.31;5053865;28;20024;-57
2023/04/16 07:32:41;;;;;;;73.30;35.78;;;;;;;7.08;100.00;102214.09;5053788;28;20036;-57
2023/04/16 07:35:07;;;;;;;75.85;37.25;;;;;;;7.12;100.00;102217.75;5052977;28;20036;-56
2023/04/16 07:37:32;;;;;;;78.63;38.00;;;;;;;7.13;100.00;102224.66;5053436;28;20036;-57
2023/04/16 07:39:59;;;;;;;77.53;36.50;;;;;;;7.13;100.00;102216.97;5053850;28;20020;-57
2023/04/16 07:42:25;;;;;;;82.50;36.63;;;;;;;7.13;100.00;102216.97;5053016;28;20048;-57
2023/04/16 07:44:50;;;;;;;68.22;35.97;;;;;;;7.16;100.00;102231.66;5053759;28;20472;-57
2023/04/16 07:47:15;;;;;;;81.55;37.80;;;;;;;7.17;100.00;102228.31;5053271;28;20469;-57
2023/04/16 07:49:40;;;;;;;75.10;38.20;;;;;;;7.20;100.00;102233.63;5052820;28;20028;-57
2023/04/16 07:52:06;;;;;;;71.88;37.33;;;;;;;7.21;100.00;102230.28;5052983;28;20021;-57
2023/04/16 07:54:31;;;;;;;77.03;38.60;;;;;;;7.23;100.00;102237.28;5051775;28;20029;-57
2023/04/16 07:56:56;;;;;;;71.40;37.28;;;;;;;7.26;100.00;102241.72;5053604;28;20123;-57
2023/04/16 07:59:22;;;;;;;78.07;38.33;;;;;;;7.31;100.00;102242.00;5053202;28;20108;-57
2023/04/16 08:01:47;;;;;;;76.38;38.00;;;;;;;7.31;100.00;102247.16;5052988;28;20435;-57
2023/04/16 08:04:13;;;;;;;75.88;37.05;;;;;;;7.36;100.00;102245.75;5053163;28;20140;-57
2023/04/16 08:06:38;;;;;;;79.72;36.70;;;;;;;7.39;100.00;102251.13;5052884;28;20025;-57
2023/04/16 08:09:03;;;;;;;73.30;37.35;;;;;;;7.38;100.00;102247.66;5052434;28;20032;-57
2023/04/16 08:11:29;;;;;;;72.70;36.17;;;;;;;7.40;100.00;102248.66;5053101;28;20025;-57
2023/04/16 08:13:54;;;;;;;71.35;35.00;;;;;;;7.45;100.00;102251.53;5053364;28;20035;-57
2023/04/16 08:16:19;;;;;;;71.43;34.65;;;;;;;7.47;100.00;102255.06;5051902;28;20095;-57
2023/04/16 08:18:45;;;;;;;74.30;34.13;;;;;;;7.49;100.00;102263.75;5053174;28;20047;-57
2023/04/16 08:21:10;;;;;;;70.10;34.35;;;;;;;7.51;100.00;102259.59;5053203;28;20028;-57
2023/04/16 08:23:35;;;;;;;59.70;31.42;;;;;;;7.52;100.00;102258.81;5051783;28;20472;-57
2023/04/16 08:26:01;;;;;;;57.72;32.42;;;;;;;7.57;100.00;102269.38;5053035;28;20514;-57
2023/04/16 08:28:26;;;;;;;68.30;32.85;;;;;;;7.58;100.00;102274.59;5052475;28;20025;-57
2023/04/16 08:30:51;;;;;;;58.28;32.45;;;;;;;7.65;100.00;102273.31;5052253;28;20021;-57
2023/04/16 08:33:17;;;;;;;61.60;33.45;;;;;;;7.70;100.00;102273.63;5052354;28;20021;-57
2023/04/16 08:35:42;;;;;;;60.25;31.27;;;;;;;7.69;100.00;102265.03;5052831;28;20029;-57
2023/04/16 08:38:07;;;;;;;60.92;32.38;;;;;;;7.72;100.00;102279.72;5051858;28;20481;-57
2023/04/16 08:40:38;;;;;;;68.75;32.55;;;;;;;7.72;100.00;102280.63;5052689;28;20029;-57
2023/04/16 08:43:08;;;;;;;61.20;31.17;;;;;;;7.77;100.00;102274.91;5052859;28;20040;-57
2023/04/16 08:45:33;;;;;;;63.67;31.13;;;;;;;7.76;100.00;102281.72;5051767;28;20033;-58
2023/04/16 08:48:00;;;;;;;61.45;30.58;;;;;;;7.84;100.00;102275.38;5052672;28;20032;-57
2023/04/16 08:50:27;;;;;;;52.90;30.00;;;;;;;7.88;100.00;102274.78;5052533;28;20025;-57
2023/04/16 08:52:57;;;;;;;52.50;29.17;;;;;;;7.93;100.00;102282.78;5052105;28;20017;-57
2023/04/16 08:55:31;;;;;;;59.40;30.75;;;;;;;7.99;100.00;102285.75;5052278;28;20473;-57
2023/04/16 08:58:02;;;;;;;49.75;28.73;;;;;;;8.01;100.00;102283.28;5051883;28;20040;-57
2023/04/16 09:00:30;;;;;;;52.58;28.60;;;;;;;8.02;100.00;102288.50;5052189;28;20032;-57
2023/04/16 09:02:55;;;;;;;56.78;28.48;;;;;;;8.03;100.00;102294.50;5054105;28;20056;-57
2023/04/16 09:05:24;;;;;;;57.28;30.67;;;;;;;8.04;100.00;102286.03;5055571;28;20610;-57
2023/04/16 09:07:51;;;;;;;51.83;29.98;;;;;;;8.06;100.00;102299.88;5056929;28;20045;-57
2023/04/16 09:10:17;;;;;;;48.10;29.60;;;;;;;8.07;100.00;102301.66;5056243;28;20056;-57
2023/04/16 09:12:43;;;;;;;57.20;29.90;;;;;;;8.08;100.00;102304.31;5055768;28;20448;-57
2023/04/16 09:15:10;;;;;;;56.35;29.50;;;;;;;8.15;100.00;102300.44;5056431;28;20025;-57
2023/04/16 09:17:35;;;;;;;51.63;28.20;;;;;;;8.20;100.00;102305.88;5056106;28;20564;-57
2023/04/16 09:20:01;;;;;;;53.63;28.13;;;;;;;8.22;100.00;102301.69;5055852;28;20535;-57
2023/04/16 09:22:26;;;;;;;53.03;28.13;;;;;;;8.19;100.00;102299.84;5056163;28;20033;-57
2023/04/16 09:24:51;;;;;;;52.78;30.17;;;;;;;8.18;100.00;102303.19;5056329;28;20017;-57
2023/04/16 09:27:17;;;;;;;55.85;30.27;;;;;;;8.20;100.00;102304.19;5054705;28;20070;-57
2023/04/16 09:29:42;;;;;;;53.67;28.90;;;;;;;8.24;100.00;102311.28;5056224;28;20033;-57
2023/04/16 09:32:10;;;;;;;51.33;30.10;;;;;;;8.26;100.00;102311.38;5056398;28;20423;-57
2023/04/16 09:34:54;;;;;;;54.97;28.33;;;;;;;8.30;100.00;102320.16;5055182;28;20385;-57
2023/04/16 09:37:19;;;;;;;56.90;29.85;;;;;;;8.24;100.00;102321.56;5055314;28;20444;-57
2023/04/16 09:40:02;;;;;;;49.17;28.00;;;;;;;8.26;100.00;102320.78;5056129;28;20465;-57
2023/04/16 09:42:34;;;;;;;50.92;28.45;;;;;;;8.23;100.00;102322.34;5055891;28;20044;-57
2023/04/16 09:45:00;;;;;;;51.28;29.48;;;;;;;8.28;100.00;102326.91;5056107;28;20064;-57
2023/04/16 09:47:38;;;;;;;52.50;29.83;;;;;;;8.36;100.00;102335.97;5054889;28;20068;-57
2023/04/16 09:50:04;;;;;;;51.53;29.55;;;;;;;8.39;100.00;102331.91;5055891;28;20025;-57
2023/04/16 09:52:30;;;;;;;54.30;30.27;;;;;;;8.42;100.00;102336.34;5055456;28;20021;-57
2023/04/16 09:54:55;;;;;;;55.97;30.67;;;;;;;8.44;100.00;102333.88;5053549;28;20021;-57
2023/04/16 09:57:23;;;;;;;58.92;31.35;;;;;;;8.43;100.00;102333.00;5055511;28;20025;-56
2023/04/16 09:59:51;;;;;;;;;;;;;;;8.55;100.00;102338.91;5056121;28;20017;-57
2023/04/16 10:02:17;;;;;;;60.13;30.83;;;;;;;8.50;100.00;102340.31;5054595;28;19959;-56
2023/04/16 10:04:45;;;;;;;57.72;30.08;;;;;;;8.49;100.00;102341.09;5055408;28;20045;-57
2023/04/16 10:07:12;;;;;;;57.38;31.27;;;;;;;8.56;100.00;102334.69;5054889;28;20029;-57
2023/04/16 10:09:38;;;;;;;54.15;31.38;;;;;;;8.59;100.00;102337.44;5054049;28;20029;-57
2023/04/16 10:12:05;;;;;;;53.47;31.73;;;;;;;8.68;100.00;102334.53;5055357;28;20082;-57
2023/04/16 10:14:31;;;;;;;56.00;31.50;;;;;;;8.67;100.00;102332.75;5054646;28;20017;-57
2023/04/16 10:16:56;;;;;;;54.83;32.13;;;;;;;8.66;100.00;102331.88;5054804;28;20040;-57
2023/04/16 10:19:23;;;;;;;53.15;31.77;;;;;;;8.64;100.00;102341.16;5055096;28;20491;-57
2023/04/16 10:21:49;;;;;;;58.60;33.90;;;;;;;8.66;100.00;102343.81;5055132;28;20457;-57
2023/04/16 10:24:16;;;;;;;53.03;32.30;;;;;;;8.65;100.00;102347.19;5054280;28;20052;-57
2023/04/16 10:26:42;;;;;;;48.30;30.90;;;;;;;8.70;100.00;102338.06;5055278;28;20045;-57
2023/04/16 10:29:08;;;;;;;47.65;29.30;;;;;;;8.74;100.00;102337.50;5055087;28;20021;-57
2023/04/16 10:31:35;;;;;;;56.17;29.92;;;;;;;8.73;100.00;102340.84;5053976;28;20485;-57
2023/04/16 10:34:02;;;;;;;46.30;28.67;;;;;;;8.73;100.00;102344.31;5055152;28;20033;-57
2023/04/16 10:36:27;;;;;;;49.13;30.20;;;;;;;8.78;100.00;102347.16;5053886;28;20061;-57
2023/04/16 10:38:57;;;;;;;44.88;28.70;;;;;;;8.73;100.00;102351.13;5054599;28;20447;-57
2023/04/16 10:41:25;;;;;;;49.25;29.35;;;;;;;8.72;100.00;102352.81;5054769;28;20163;-57
2023/04/16 10:43:50;;;;;;;;;;;;;;;8.86;100.00;102350.19;5054539;28;20036;-57
2023/04/16 10:46:30;;;;;;;44.42;27.73;;;;;;;8.78;100.00;102353.97;5054677;28;19912;-57
2023/04/16 10:49:00;;;;;;;49.83;28.67;;;;;;;8.70;100.00;102356.97;5054684;28;20366;-57
2023/04/16 10:51:33;;;;;;;50.47;29.80;;;;;;;8.75;100.00;102356.38;5053571;28;20017;-57
2023/04/16 10:54:07;;;;;;;51.00;27.65;;;;;;;8.72;100.00;102357.06;5054530;28;20033;-57
2023/04/16 10:56:34;;;;;;;43.53;27.83;;;;;;;8.73;100.00;102353.72;5054345;28;20029;-57
2023/04/16 10:59:00;;;;;;;43.28;27.17;;;;;;;8.72;100.00;102351.94;5053503;28;20075;-56
2023/04/16 11:01:33;;;;;;;43.55;27.85;;;;;;;8.73;100.00;102352.00;5054240;28;20029;-57
2023/04/16 11:04:00;;;;;;;46.53;28.67;;;;;;;8.75;100.00;102352.09;5054185;28;20501;-57